createdAt,value
2022-07-31T00:02:09.863Z,37.67
2022-07-31T00:04:38.291Z,37.36
2022-07-31T00:07:07.095Z,37.41
2022-07-31T00:09:53.734Z,37.41
2022-07-31T00:12:23.362Z,37.24
2022-07-31T00:14:52.051Z,37.02
2022-07-31T00:17:20.485Z,37.18
2022-07-31T00:19:48.960Z,37.08
2022-07-31T00:22:17.630Z,36.77
2022-07-31T00:24:46.300Z,37.05
2022-07-31T00:27:14.692Z,37.25
2022-07-31T00:29:43.240Z,37.13
2022-07-31T00:32:11.770Z,37.26
2022-07-31T00:34:40.374Z,37.05
2022-07-31T00:37:10.321Z,37.25
2022-07-31T00:39:38.874Z,37.30
2022-07-31T00:42:20.421Z,37.32
2022-07-31T00:44:49.535Z,37.56
2022-07-31T00:47:18.171Z,37.64
2022-07-31T00:49:53.039Z,37.61
2022-07-31T00:52:21.700Z,37.79
2022-07-31T00:54:50.342Z,37.77
2022-07-31T00:57:19.123Z,38.14
2022-07-31T00:59:47.579Z,38.10
2022-07-31T01:02:16.016Z,38.08
2022-07-31T01:04:45.815Z,38.23
2022-07-31T01:07:14.552Z,38.37
2022-07-31T01:09:42.970Z,38.25
2022-07-31T01:12:23.001Z,38.11
2022-07-31T01:14:57.541Z,38.18
2022-07-31T01:17:28.661Z,38.25
2022-07-31T01:19:57.302Z,37.99
2022-07-31T01:23:13.621Z,38.07
2022-07-31T01:26:25.461Z,38.19
2022-07-31T01:29:29.516Z,38.30
2022-07-31T01:32:18.203Z,38.38
2022-07-31T01:34:50.232Z,38.70
2022-07-31T01:37:31.595Z,38.50
2022-07-31T01:40:14.999Z,38.49
2022-07-31T01:42:45.023Z,38.64
2022-07-31T01:45:14.671Z,38.39
2022-07-31T01:47:43.092Z,38.58
2022-07-31T01:50:42.816Z,38.79
2022-07-31T01:53:01.241Z,38.39
2022-07-31T01:55:30.013Z,38.32
2022-07-31T01:57:58.601Z,38.24
2022-07-31T02:00:34.268Z,37.91
2022-07-31T02:03:09.398Z,38.00
2022-07-31T02:05:42.082Z,38.17
2022-07-31T02:08:12.433Z,38.03
2022-07-31T02:10:45.713Z,37.99
2022-07-31T02:13:14.665Z,38.18
2022-07-31T02:15:43.142Z,38.08
2022-07-31T02:18:12.982Z,38.09
2022-07-31T02:20:41.762Z,38.25
2022-07-31T02:23:12.426Z,38.37
2022-07-31T02:25:41.182Z,38.16
2022-07-31T02:28:13.585Z,37.62
2022-07-31T02:30:44.411Z,38.03
2022-07-31T02:33:20.424Z,37.81
2022-07-31T02:35:51.751Z,37.98
2022-07-31T02:38:23.893Z,37.62
2022-07-31T02:41:00.549Z,37.75
2022-07-31T02:43:33.471Z,37.63
2022-07-31T02:46:08.070Z,37.40
2022-07-31T02:48:37.545Z,37.19
2022-07-31T02:51:09.715Z,37.15
2022-07-31T02:53:38.696Z,36.94
2022-07-31T02:56:11.162Z,36.77
2022-07-31T02:58:42.835Z,37.08
2022-07-31T03:01:20.457Z,36.94
2022-07-31T03:03:50.493Z,36.75
2022-07-31T03:06:19.545Z,37.16
2022-07-31T03:08:48.753Z,36.63
2022-07-31T03:11:21.763Z,37.12
2022-07-31T03:13:50.403Z,36.93
2022-07-31T03:16:18.893Z,37.10
2022-07-31T03:18:47.622Z,36.86
2022-07-31T03:21:16.192Z,36.68
2022-07-31T03:23:44.752Z,36.49
2022-07-31T03:26:19.485Z,36.43
2022-07-31T03:28:49.088Z,36.79
2022-07-31T03:31:17.507Z,37.09
2022-07-31T03:33:46.716Z,37.15
2022-07-31T03:36:17.313Z,37.12
2022-07-31T03:38:50.479Z,37.12
2022-07-31T03:41:37.888Z,36.89
2022-07-31T03:44:06.423Z,37.03
2022-07-31T03:46:35.363Z,36.88
2022-07-31T03:49:04.931Z,36.71
2022-07-31T03:51:35.543Z,36.38
2022-07-31T03:54:04.193Z,36.46
2022-07-31T03:56:52.703Z,36.23
2022-07-31T03:59:21.687Z,35.79
2022-07-31T04:01:58.187Z,35.99
2022-07-31T04:04:47.442Z,36.03
2022-07-31T04:07:16.277Z,36.23
2022-07-31T04:09:44.873Z,36.56
2022-07-31T04:12:15.234Z,36.59
2022-07-31T04:14:44.465Z,36.56
2022-07-31T04:17:13.199Z,36.33
2022-07-31T04:19:42.928Z,36.20
2022-07-31T04:22:11.871Z,36.24
2022-07-31T04:24:41.350Z,36.22
2022-07-31T04:27:28.052Z,36.12
2022-07-31T04:29:57.802Z,36.18
2022-07-31T04:32:26.322Z,36.25
2022-07-31T04:34:59.918Z,36.58
2022-07-31T04:37:29.371Z,36.59
2022-07-31T04:39:59.341Z,36.25
2022-07-31T04:42:28.200Z,36.13
2022-07-31T04:45:02.901Z,35.83
2022-07-31T04:47:32.490Z,35.61
2022-07-31T04:50:01.319Z,35.32
2022-07-31T04:52:29.860Z,35.47
2022-07-31T04:55:05.620Z,35.46
2022-07-31T04:57:34.140Z,35.42
2022-07-31T05:00:04.944Z,35.57
2022-07-31T05:02:35.280Z,35.22
2022-07-31T05:05:04.422Z,35.31
2022-07-31T05:07:37.021Z,35.43
2022-07-31T05:10:31.410Z,35.64
2022-07-31T05:13:00.330Z,36.00
2022-07-31T05:15:28.870Z,35.94
2022-07-31T05:17:58.555Z,36.35
2022-07-31T05:20:45.479Z,35.75
2022-07-31T05:23:30.070Z,35.76
2022-07-31T05:26:18.153Z,35.89
2022-07-31T05:28:47.600Z,35.68
2022-07-31T05:31:18.452Z,35.34
2022-07-31T05:33:48.411Z,35.62
2022-07-31T05:36:19.104Z,35.67
2022-07-31T05:38:47.821Z,36.01
2022-07-31T05:41:34.741Z,35.88
2022-07-31T05:44:29.422Z,35.66
2022-07-31T05:49:27.247Z,35.89
2022-07-31T05:51:57.332Z,36.29
2022-07-31T05:54:25.970Z,35.93
2022-07-31T05:57:12.900Z,36.61
2022-07-31T06:00:02.007Z,36.64
2022-07-31T06:02:40.545Z,36.57
2022-07-31T06:05:23.784Z,36.40
2022-07-31T06:07:52.606Z,35.46
2022-07-31T06:10:23.264Z,35.54
2022-07-31T06:12:52.836Z,35.48
2022-07-31T06:15:21.625Z,35.17
2022-07-31T06:17:51.504Z,34.74
2022-07-31T06:20:28.928Z,34.68
2022-07-31T06:22:57.565Z,35.20
2022-07-31T06:25:34.967Z,35.73
2022-07-31T06:28:10.547Z,34.76
2022-07-31T06:30:42.286Z,34.43
2022-07-31T06:33:36.647Z,34.14
2022-07-31T06:35:59.828Z,34.48
2022-07-31T06:38:51.225Z,35.45
2022-07-31T06:41:48.766Z,36.07
2022-07-31T06:44:29.795Z,36.44
2022-07-31T06:47:15.743Z,36.39
2022-07-31T06:50:06.175Z,36.44
2022-07-31T06:52:48.428Z,36.59
2022-07-31T06:55:18.440Z,36.87
2022-07-31T06:57:46.935Z,37.08
2022-07-31T07:00:20.524Z,37.37
2022-07-31T07:02:52.567Z,38.45
2022-07-31T07:05:21.975Z,38.47
2022-07-31T07:07:53.866Z,38.88
2022-07-31T07:10:22.687Z,38.60
2022-07-31T07:13:00.159Z,38.33
2022-07-31T07:15:33.117Z,38.32
2022-07-31T07:18:01.634Z,37.82
2022-07-31T07:20:51.425Z,37.86
2022-07-31T07:23:20.355Z,37.84
2022-07-31T07:26:15.474Z,38.32
2022-07-31T07:28:44.345Z,38.13
2022-07-31T07:31:12.845Z,38.55
2022-07-31T07:33:43.109Z,39.88
2022-07-31T07:36:22.937Z,39.67
2022-07-31T07:39:16.134Z,40.18
2022-07-31T07:41:45.511Z,39.75
2022-07-31T07:44:13.973Z,39.95
2022-07-31T07:46:42.853Z,39.33
2022-07-31T07:49:15.211Z,39.44
2022-07-31T07:51:58.471Z,39.55
2022-07-31T07:54:43.232Z,39.63
2022-07-31T07:57:18.978Z,39.33
2022-07-31T08:00:11.127Z,39.22
2022-07-31T08:03:47.234Z,39.45
2022-07-31T08:05:39.785Z,39.46
2022-07-31T08:08:08.618Z,38.92
2022-07-31T08:10:57.315Z,38.65
2022-07-31T08:13:40.871Z,37.95
2022-07-31T08:16:29.894Z,38.34
2022-07-31T08:19:01.324Z,38.97
2022-07-31T08:21:30.184Z,39.24
2022-07-31T08:23:58.685Z,38.56
2022-07-31T08:26:28.299Z,39.14
2022-07-31T08:28:58.324Z,39.23
2022-07-31T08:31:34.036Z,39.22
2022-07-31T08:34:31.364Z,39.74
2022-07-31T08:37:51.815Z,39.94
2022-07-31T08:39:55.586Z,39.60
2022-07-31T08:42:24.986Z,39.17
2022-07-31T08:44:53.894Z,38.60
2022-07-31T08:47:27.999Z,38.55
2022-07-31T08:50:00.035Z,38.78
2022-07-31T08:52:31.405Z,39.10
2022-07-31T08:55:24.825Z,39.43
2022-07-31T08:58:12.155Z,38.87
2022-07-31T09:00:43.434Z,39.60
2022-07-31T09:03:12.218Z,39.51
2022-07-31T09:05:54.675Z,39.48
2022-07-31T09:08:24.188Z,39.66
2022-07-31T09:11:09.485Z,40.38
2022-07-31T09:14:01.802Z,39.91
2022-07-31T09:16:48.406Z,40.03
2022-07-31T09:19:52.152Z,40.13
2022-07-31T09:22:27.227Z,39.76
2022-07-31T09:25:13.257Z,39.51
2022-07-31T09:27:42.035Z,39.34
2022-07-31T09:30:12.126Z,39.02
2022-07-31T09:33:22.226Z,36.55
2022-07-31T09:36:10.194Z,36.80
2022-07-31T09:38:42.424Z,37.62
2022-07-31T09:42:00.232Z,37.04
2022-07-31T09:45:06.145Z,36.63
2022-07-31T09:47:37.974Z,36.47
2022-07-31T09:50:08.703Z,36.46
2022-07-31T09:52:37.500Z,36.36
2022-07-31T09:55:15.678Z,37.04
2022-07-31T09:57:54.353Z,36.84
2022-07-31T10:00:23.528Z,35.93
2022-07-31T10:02:57.011Z,36.34
2022-07-31T10:05:28.390Z,35.90
2022-07-31T10:08:01.946Z,35.00
2022-07-31T10:10:52.208Z,35.65
2022-07-31T10:13:46.845Z,36.09
2022-07-31T10:16:15.889Z,36.01
2022-07-31T10:19:00.401Z,35.28
2022-07-31T10:21:54.492Z,35.02
2022-07-31T10:24:30.248Z,35.46
2022-07-31T10:27:03.833Z,35.96
2022-07-31T10:29:39.828Z,36.08
2022-07-31T10:32:08.917Z,36.17
2022-07-31T10:34:43.268Z,36.38
2022-07-31T10:38:06.655Z,36.69
2022-07-31T10:41:18.290Z,35.20
2022-07-31T10:43:54.984Z,34.38
2022-07-31T10:46:33.574Z,34.01
2022-07-31T10:49:33.749Z,34.29
2022-07-31T10:52:31.757Z,34.17
2022-07-31T10:55:25.856Z,34.38
2022-07-31T10:58:19.851Z,34.57
2022-07-31T11:01:09.715Z,33.67
2022-07-31T11:03:47.215Z,33.46
2022-07-31T11:06:25.025Z,33.14
2022-07-31T11:08:58.547Z,33.17
2022-07-31T11:11:50.985Z,32.85
2022-07-31T11:14:41.508Z,33.10
2022-07-31T11:18:25.198Z,32.46
2022-07-31T11:20:34.260Z,31.95
2022-07-31T11:23:08.854Z,32.14
2022-07-31T11:25:37.874Z,31.96
2022-07-31T11:28:25.045Z,31.41
2022-07-31T11:31:01.364Z,32.21
2022-07-31T11:33:41.851Z,31.28
2022-07-31T11:36:21.098Z,31.44
2022-07-31T11:38:52.285Z,31.28
2022-07-31T11:41:24.272Z,30.70
2022-07-31T11:43:53.164Z,31.62
2022-07-31T11:46:39.958Z,27.84
2022-07-31T11:49:08.539Z,27.01
2022-07-31T11:51:37.284Z,27.18
2022-07-31T11:54:05.905Z,28.39
2022-07-31T11:56:34.370Z,28.29
2022-07-31T11:59:03.094Z,28.69
2022-07-31T12:01:34.447Z,30.04
2022-07-31T12:04:08.801Z,30.04
2022-07-31T12:06:39.732Z,27.75
2022-07-31T12:10:02.749Z,27.47
2022-07-31T12:11:58.200Z,25.59
2022-07-31T12:14:37.054Z,24.56
2022-07-31T12:17:07.897Z,25.58
2022-07-31T12:19:38.764Z,26.53
2022-07-31T12:22:20.556Z,28.01
2022-07-31T12:24:49.054Z,28.44
2022-07-31T12:27:18.725Z,28.17
2022-07-31T12:29:47.209Z,27.19
2022-07-31T12:32:15.654Z,26.92
2022-07-31T12:34:45.185Z,27.35
2022-07-31T12:37:19.612Z,27.76
2022-07-31T12:40:00.194Z,28.15
2022-07-31T12:42:35.130Z,27.83
2022-07-31T12:45:17.967Z,28.08
2022-07-31T12:47:51.190Z,28.22
2022-07-31T12:50:25.834Z,28.44
2022-07-31T12:52:54.957Z,27.91
2022-07-31T12:55:23.623Z,27.67
2022-07-31T12:57:52.652Z,27.36
2022-07-31T13:00:25.384Z,27.73
2022-07-31T13:02:55.545Z,27.99
2022-07-31T13:05:24.266Z,28.00
2022-07-31T13:07:53.184Z,28.72
2022-07-31T13:10:24.753Z,28.70
2022-07-31T13:12:53.992Z,29.45
2022-07-31T13:15:30.040Z,29.29
2022-07-31T13:18:02.201Z,29.28
2022-07-31T13:20:31.393Z,28.95
2022-07-31T13:23:00.005Z,28.05
2022-07-31T13:25:31.675Z,27.96
2022-07-31T13:28:00.568Z,28.66
2022-07-31T13:30:29.168Z,28.40
2022-07-31T13:32:57.677Z,28.16
2022-07-31T13:35:28.451Z,28.02
2022-07-31T13:37:57.510Z,27.77
2022-07-31T13:40:44.865Z,27.53
2022-07-31T13:43:13.710Z,27.88
2022-07-31T13:45:42.263Z,27.33
2022-07-31T13:48:10.697Z,26.61
2022-07-31T13:50:42.255Z,26.64
2022-07-31T13:53:11.015Z,26.93
2022-07-31T13:55:39.472Z,26.26
2022-07-31T13:58:09.086Z,26.76
2022-07-31T14:00:37.551Z,27.48
2022-07-31T14:03:05.972Z,27.21
2022-07-31T14:05:39.940Z,26.72
2022-07-31T14:08:33.162Z,26.60
2022-07-31T14:10:58.273Z,26.47
2022-07-31T14:13:26.944Z,26.36
2022-07-31T14:15:55.645Z,26.59
2022-07-31T14:18:24.862Z,26.62
2022-07-31T14:20:53.265Z,25.83
2022-07-31T14:23:34.082Z,25.25
2022-07-31T14:26:05.621Z,25.04
2022-07-31T14:28:34.116Z,25.19
2022-07-31T14:31:02.647Z,24.43
2022-07-31T14:33:31.401Z,24.94
2022-07-31T14:36:00.116Z,23.87
2022-07-31T14:38:28.691Z,24.02
2022-07-31T14:40:57.455Z,24.03
2022-07-31T14:43:25.964Z,24.32
2022-07-31T14:45:54.479Z,24.61
2022-07-31T14:48:23.498Z,24.67
2022-07-31T14:50:52.107Z,24.95
2022-07-31T14:53:20.698Z,25.12
2022-07-31T14:55:49.671Z,25.33
2022-07-31T14:58:18.358Z,25.38
2022-07-31T15:00:47.071Z,25.59
2022-07-31T15:03:15.957Z,25.88
2022-07-31T15:06:41.512Z,26.26
2022-07-31T15:08:33.628Z,26.69
2022-07-31T15:11:03.021Z,26.59
2022-07-31T15:13:34.019Z,26.66
2022-07-31T15:16:05.537Z,27.01
2022-07-31T15:18:34.119Z,27.82
2022-07-31T15:21:02.655Z,27.85
2022-07-31T15:23:35.960Z,27.78
2022-07-31T15:26:05.123Z,27.96
2022-07-31T15:28:34.949Z,27.97
2022-07-31T15:31:04.417Z,27.68
2022-07-31T15:33:33.439Z,26.98
2022-07-31T15:36:02.989Z,26.67
2022-07-31T15:38:31.818Z,26.85
2022-07-31T15:41:00.699Z,26.80
2022-07-31T15:43:29.717Z,26.75
2022-07-31T15:46:01.282Z,27.32
2022-07-31T15:48:29.928Z,27.21
2022-07-31T15:50:58.761Z,27.47
2022-07-31T15:53:32.835Z,26.62
2022-07-31T15:56:08.381Z,26.70
2022-07-31T15:58:37.017Z,26.23
2022-07-31T16:01:05.687Z,25.89
2022-07-31T16:03:50.492Z,26.11
2022-07-31T16:06:28.001Z,27.21
2022-07-31T16:09:01.259Z,27.28
2022-07-31T16:12:03.563Z,27.18
2022-07-31T16:14:18.838Z,27.05
2022-07-31T16:16:47.478Z,27.33
2022-07-31T16:19:20.627Z,26.93
2022-07-31T16:21:49.748Z,27.35
2022-07-31T16:24:20.319Z,27.06
2022-07-31T16:26:50.204Z,26.70
2022-07-31T16:29:57.783Z,26.82
2022-07-31T16:32:10.479Z,26.83
2022-07-31T16:34:39.942Z,26.72
2022-07-31T16:37:08.575Z,26.98
2022-07-31T16:39:37.348Z,26.85
2022-07-31T16:42:06.270Z,26.85
2022-07-31T16:44:37.379Z,27.14
2022-07-31T16:47:07.102Z,27.25
2022-07-31T16:49:39.443Z,27.41
2022-07-31T16:52:08.350Z,27.81
2022-07-31T16:54:37.005Z,27.84
2022-07-31T16:57:05.786Z,28.16
2022-07-31T16:59:35.087Z,27.98
2022-07-31T17:02:25.028Z,28.03
2022-07-31T17:04:54.258Z,28.46
2022-07-31T17:07:23.656Z,28.29
2022-07-31T17:09:52.218Z,28.34
2022-07-31T17:12:21.346Z,28.40
2022-07-31T17:14:51.178Z,28.18
2022-07-31T17:17:20.995Z,28.80
2022-07-31T17:19:55.150Z,28.76
2022-07-31T17:22:24.070Z,28.87
2022-07-31T17:24:53.303Z,28.31
2022-07-31T17:27:22.759Z,28.59
2022-07-31T17:29:51.734Z,28.58
2022-07-31T17:32:20.533Z,28.42
2022-07-31T17:34:49.966Z,28.53
2022-07-31T17:37:19.100Z,28.42
2022-07-31T17:39:47.935Z,28.01
2022-07-31T17:42:18.178Z,28.43
2022-07-31T17:44:55.184Z,28.82
2022-07-31T17:47:25.993Z,28.39
2022-07-31T17:49:54.982Z,28.65
2022-07-31T17:52:23.968Z,28.77
2022-07-31T17:54:53.844Z,28.67
2022-07-31T17:57:29.753Z,28.70
2022-07-31T17:59:59.133Z,28.55
2022-07-31T18:02:28.360Z,28.83
2022-07-31T18:04:57.431Z,28.70
2022-07-31T18:07:26.473Z,28.74
2022-07-31T18:09:57.671Z,29.21
2022-07-31T18:12:26.406Z,29.09
2022-07-31T18:14:55.007Z,28.97
2022-07-31T18:17:24.167Z,29.23
2022-07-31T18:19:52.857Z,29.83
2022-07-31T18:22:21.428Z,29.74
2022-07-31T18:24:50.561Z,29.87
2022-07-31T18:27:19.147Z,30.11
2022-07-31T18:29:55.729Z,30.21
2022-07-31T18:32:25.264Z,30.38
2022-07-31T18:34:53.879Z,30.44
2022-07-31T18:37:22.556Z,30.65
2022-07-31T18:39:51.657Z,30.99
2022-07-31T18:42:20.630Z,30.80
2022-07-31T18:44:49.261Z,31.56
2022-07-31T18:47:18.358Z,31.55
2022-07-31T18:50:58.701Z,31.90
2022-07-31T18:52:36.137Z,31.84
2022-07-31T18:55:05.066Z,31.87
2022-07-31T18:57:33.748Z,32.22
2022-07-31T19:00:02.929Z,32.26
2022-07-31T19:02:31.509Z,32.17
2022-07-31T19:05:00.558Z,32.71
2022-07-31T19:07:30.333Z,32.91
2022-07-31T19:10:08.085Z,32.96
2022-07-31T19:12:37.100Z,33.39
2022-07-31T19:15:06.897Z,33.22
2022-07-31T19:17:44.066Z,33.20
2022-07-31T19:20:40.407Z,33.26
2022-07-31T19:23:02.586Z,32.86
2022-07-31T19:25:59.433Z,32.93
2022-07-31T19:28:27.174Z,33.00
2022-07-31T19:30:56.666Z,33.29
2022-07-31T19:33:25.585Z,33.39
2022-07-31T19:36:00.747Z,33.64
2022-07-31T19:38:31.847Z,33.52
2022-07-31T19:41:00.887Z,33.57
2022-07-31T19:43:29.719Z,33.84
2022-07-31T19:46:10.550Z,33.63
2022-07-31T19:48:45.562Z,33.88
2022-07-31T19:51:16.676Z,33.95
2022-07-31T19:53:45.471Z,33.42
2022-07-31T19:56:20.100Z,33.13
2022-07-31T19:58:50.220Z,33.58
2022-07-31T20:01:22.056Z,33.42
2022-07-31T20:03:51.147Z,33.25
2022-07-31T20:06:19.861Z,33.22
2022-07-31T20:08:49.289Z,33.30
2022-07-31T20:11:18.037Z,33.21
2022-07-31T20:13:46.605Z,33.49
2022-07-31T20:16:16.018Z,33.35
2022-07-31T20:18:44.736Z,33.16
2022-07-31T20:21:13.317Z,33.34
2022-07-31T20:23:42.099Z,33.22
2022-07-31T20:26:12.847Z,33.10
2022-07-31T20:28:41.647Z,33.26
2022-07-31T20:31:15.996Z,32.80
2022-07-31T20:33:56.887Z,33.05
2022-07-31T20:36:28.870Z,32.88
2022-07-31T20:38:59.062Z,32.89
2022-07-31T20:41:28.686Z,32.79
2022-07-31T20:43:57.377Z,32.21
2022-07-31T20:46:28.226Z,32.92
2022-07-31T20:48:57.646Z,32.68
2022-07-31T20:51:26.266Z,31.89
2022-07-31T20:53:55.216Z,32.60
2022-07-31T20:56:23.966Z,32.45
2022-07-31T20:58:52.549Z,31.33
2022-07-31T21:01:22.136Z,31.59
2022-07-31T21:03:50.696Z,31.62
2022-07-31T21:06:22.221Z,31.53
2022-07-31T21:08:51.026Z,31.17
2022-07-31T21:11:20.494Z,31.77
2022-07-31T21:13:49.086Z,31.50
2022-07-31T21:16:19.478Z,31.98
2022-07-31T21:18:50.766Z,31.93
2022-07-31T21:21:19.308Z,32.20
2022-07-31T21:23:48.893Z,32.19
2022-07-31T21:26:17.815Z,32.16
2022-07-31T21:28:48.468Z,32.18
2022-07-31T21:31:17.615Z,31.94
2022-07-31T21:33:47.056Z,31.90
2022-07-31T21:36:15.726Z,31.99
2022-07-31T21:38:44.965Z,31.83
2022-07-31T21:41:13.886Z,31.95
2022-07-31T21:43:58.649Z,31.79
2022-07-31T21:46:29.527Z,31.85
2022-07-31T21:48:58.558Z,31.95
2022-07-31T21:51:27.585Z,31.29
2022-07-31T21:53:56.387Z,31.43
2022-07-31T21:56:24.926Z,31.65
2022-07-31T21:58:53.485Z,31.36
2022-07-31T22:01:22.454Z,31.56
2022-07-31T22:03:51.176Z,31.33
2022-07-31T22:06:37.956Z,31.52
2022-07-31T22:09:06.637Z,31.22
2022-07-31T22:11:36.169Z,31.43
2022-07-31T22:14:04.756Z,31.61
2022-07-31T22:16:33.615Z,31.70
2022-07-31T22:19:02.536Z,31.75
2022-07-31T22:21:31.436Z,31.76
2022-07-31T22:24:00.676Z,31.80
2022-07-31T22:26:32.240Z,32.08
2022-07-31T22:29:01.394Z,32.01
2022-07-31T22:31:30.054Z,31.97
2022-07-31T22:33:58.755Z,32.06
2022-07-31T22:36:27.482Z,32.32
2022-07-31T22:38:56.221Z,32.04
2022-07-31T22:41:25.023Z,31.92
2022-07-31T22:44:13.853Z,31.48
2022-07-31T22:46:43.181Z,31.89
2022-07-31T22:49:12.075Z,31.88
2022-07-31T22:51:43.706Z,30.97
2022-07-31T22:54:15.586Z,31.03
2022-07-31T22:56:44.044Z,31.13
2022-07-31T22:59:12.761Z,30.92
2022-07-31T23:01:41.882Z,30.97
2022-07-31T23:04:10.479Z,30.92
2022-07-31T23:06:39.022Z,30.69
2022-07-31T23:09:07.962Z,30.71
2022-07-31T23:11:36.481Z,30.83
2022-07-31T23:14:05.233Z,30.54
2022-07-31T23:16:34.033Z,31.03
2022-07-31T23:19:02.923Z,30.79
2022-07-31T23:21:31.641Z,30.56
2022-07-31T23:24:00.397Z,30.73
2022-07-31T23:26:29.588Z,30.66
2022-07-31T23:28:58.097Z,30.38
2022-07-31T23:31:27.123Z,30.50
2022-07-31T23:33:55.752Z,30.62
2022-07-31T23:36:24.335Z,30.37
2022-07-31T23:38:53.172Z,30.31
2022-07-31T23:41:54.012Z,30.25
2022-07-31T23:44:25.102Z,30.29
2022-07-31T23:46:53.897Z,30.22
2022-07-31T23:49:23.248Z,30.08
2022-07-31T23:51:52.082Z,30.61
2022-07-31T23:54:20.643Z,30.60
2022-07-31T23:56:49.195Z,30.36
2022-07-31T23:59:18.102Z,30.81
